createdAt,value
2023-03-29T00:02:10.884Z,99510.31
2023-03-29T00:04:38.950Z,99499.41
2023-03-29T00:07:06.064Z,99506.50
2023-03-29T00:09:33.496Z,99500.56
2023-03-29T00:12:01.420Z,99496.75
2023-03-29T00:14:30.910Z,99495.19
2023-03-29T00:16:58.948Z,99482.00
2023-03-29T00:19:25.948Z,99491.38
2023-03-29T00:21:52.745Z,99486.47
2023-03-29T00:24:21.084Z,99495.50
2023-03-29T00:26:47.942Z,99485.16
2023-03-29T00:29:14.575Z,99487.06
2023-03-29T00:31:41.282Z,99482.19
2023-03-29T00:34:07.972Z,99478.97
2023-03-29T00:36:34.598Z,99479.53
2023-03-29T00:39:01.203Z,99470.50
2023-03-29T00:41:27.916Z,99474.88
2023-03-29T00:44:04.802Z,99471.09
2023-03-29T00:46:31.879Z,99471.41
2023-03-29T00:49:03.949Z,99471.09
2023-03-29T00:51:34.311Z,99467.63
2023-03-29T00:54:03.506Z,99463.00
2023-03-29T00:56:37.160Z,99458.34
2023-03-29T00:59:10.092Z,99461.66
2023-03-29T01:01:46.464Z,99455.97
2023-03-29T01:04:21.969Z,99459.53
2023-03-29T01:07:13.639Z,99454.91
2023-03-29T01:09:43.777Z,99444.53
2023-03-29T01:12:22.361Z,99436.09
2023-03-29T01:14:56.568Z,99445.13
2023-03-29T01:17:25.580Z,99441.44
2023-03-29T01:19:59.068Z,99451.91
2023-03-29T01:22:38.786Z,99456.88
2023-03-29T01:25:29.894Z,99456.88
2023-03-29T01:28:08.797Z,99444.03
2023-03-29T01:30:59.647Z,99432.84
2023-03-29T01:33:34.634Z,99443.28
2023-03-29T01:36:11.974Z,99440.00
2023-03-29T01:39:06.023Z,99448.19
2023-03-29T01:42:10.041Z,99444.94
2023-03-29T01:44:59.100Z,99449.59
2023-03-29T01:47:43.882Z,99445.75
2023-03-29T01:50:23.865Z,99443.63
2023-03-29T01:53:02.172Z,99441.72
2023-03-29T01:55:34.150Z,99438.16
2023-03-29T01:58:03.059Z,99442.53
2023-03-29T02:00:30.748Z,99437.41
2023-03-29T02:03:03.357Z,99428.13
2023-03-29T02:05:31.699Z,99434.66
2023-03-29T02:08:01.379Z,99427.56
2023-03-29T02:10:29.162Z,99435.50
2023-03-29T02:12:56.048Z,99424.91
2023-03-29T02:15:23.628Z,99423.25
2023-03-29T02:17:51.377Z,99424.06
2023-03-29T02:20:39.473Z,99417.19
2023-03-29T02:23:18.123Z,99413.97
2023-03-29T02:25:46.646Z,99422.50
2023-03-29T02:28:13.942Z,99412.38
2023-03-29T02:31:05.523Z,99410.47
2023-03-29T02:33:46.575Z,99410.78
2023-03-29T02:36:30.198Z,99409.13
2023-03-29T02:39:01.990Z,99409.13
2023-03-29T02:41:28.923Z,99408.88
2023-03-29T02:43:57.119Z,99410.28
2023-03-29T02:46:24.620Z,99415.25
2023-03-29T02:48:54.161Z,99416.06
2023-03-29T02:51:24.223Z,99411.16
2023-03-29T02:54:03.198Z,99405.97
2023-03-29T02:56:30.262Z,99402.47
2023-03-29T02:58:56.896Z,99400.31
2023-03-29T03:01:23.753Z,99405.53
2023-03-29T03:03:51.929Z,99394.59
2023-03-29T03:06:18.697Z,99390.28
2023-03-29T03:08:45.747Z,99393.00
2023-03-29T03:11:12.339Z,99391.09
2023-03-29T03:13:38.964Z,99389.44
2023-03-29T03:16:06.062Z,99381.72
2023-03-29T03:18:32.723Z,99391.59
2023-03-29T03:21:02.366Z,99370.53
2023-03-29T03:23:29.590Z,99368.63
2023-03-29T03:25:56.982Z,99355.19
2023-03-29T03:28:24.403Z,99355.19
2023-03-29T03:30:51.491Z,99344.25
2023-03-29T03:33:19.266Z,99331.66
2023-03-29T03:35:46.653Z,99337.97
2023-03-29T03:38:13.559Z,99330.84
2023-03-29T03:40:40.215Z,99329.47
2023-03-29T03:43:07.057Z,99328.16
2023-03-29T03:45:33.836Z,99320.22
2023-03-29T03:48:00.718Z,99321.53
2023-03-29T03:50:27.485Z,99332.75
2023-03-29T03:52:54.158Z,99327.28
2023-03-29T03:55:22.091Z,99319.91
2023-03-29T03:57:48.725Z,99319.06
2023-03-29T04:00:19.456Z,99313.06
2023-03-29T04:02:48.258Z,99308.94
2023-03-29T04:05:16.412Z,99307.88
2023-03-29T04:07:43.223Z,99295.59
2023-03-29T04:10:11.236Z,99290.88
2023-03-29T04:12:38.843Z,99299.91
2023-03-29T04:15:06.560Z,99297.41
2023-03-29T04:17:33.222Z,99298.00
2023-03-29T04:20:02.269Z,99300.97
2023-03-29T04:22:28.958Z,99299.59
2023-03-29T04:24:55.685Z,99308.56
2023-03-29T04:27:22.348Z,99310.22
2023-03-29T04:29:49.122Z,99302.50
2023-03-29T04:32:15.758Z,99291.56
2023-03-29T04:34:42.375Z,99291.56
2023-03-29T04:37:10.667Z,99292.09
2023-03-29T04:39:38.010Z,99300.38
2023-03-29T04:42:05.932Z,99306.38
2023-03-29T04:44:33.709Z,99314.66
2023-03-29T04:47:01.160Z,99325.09
2023-03-29T04:49:27.784Z,99312.78
2023-03-29T04:51:54.880Z,99315.25
2023-03-29T04:54:21.757Z,99316.06
2023-03-29T04:56:48.493Z,99314.97
2023-03-29T04:59:15.096Z,99309.78
2023-03-29T05:01:41.716Z,99313.59
2023-03-29T05:04:10.194Z,99325.09
2023-03-29T05:06:38.635Z,99323.44
2023-03-29T05:09:05.615Z,99322.88
2023-03-29T05:11:32.441Z,99330.84
2023-03-29T05:14:02.482Z,99314.66
2023-03-29T05:16:32.930Z,99297.19
2023-03-29T05:18:59.551Z,99295.50
2023-03-29T05:21:26.551Z,99287.00
2023-03-29T05:23:53.362Z,99294.94
2023-03-29T05:26:22.332Z,99290.56
2023-03-29T05:28:51.029Z,99277.13
2023-03-29T05:31:18.169Z,99285.09
2023-03-29T05:33:45.154Z,99273.38
2023-03-29T05:36:14.449Z,99265.69
2023-03-29T05:38:47.135Z,99268.16
2023-03-29T05:41:15.959Z,99258.06
2023-03-29T05:43:42.569Z,99258.34
2023-03-29T05:46:09.654Z,99272.56
2023-03-29T05:48:36.496Z,99265.50
2023-03-29T05:51:03.530Z,99269.63
2023-03-29T05:53:30.453Z,99272.63
2023-03-29T05:55:57.302Z,99265.50
2023-03-29T05:58:26.540Z,99267.97
2023-03-29T06:00:53.373Z,99267.16
2023-03-29T06:03:25.506Z,99259.50
2023-03-29T06:05:58.843Z,99268.78
2023-03-29T06:08:26.740Z,99252.09
2023-03-29T06:11:05.798Z,99265.56
2023-03-29T06:13:34.136Z,99261.13
2023-03-29T06:16:01.409Z,99268.28
2023-03-29T06:18:28.199Z,99256.25
2023-03-29T06:20:54.977Z,99256.81
2023-03-29T06:23:22.593Z,99259.38
2023-03-29T06:25:51.528Z,99256.34
2023-03-29T06:28:19.393Z,99258.28
2023-03-29T06:30:46.419Z,99251.47
2023-03-29T06:33:14.278Z,99243.00
2023-03-29T06:35:43.759Z,99251.53
2023-03-29T06:38:10.378Z,99239.44
2023-03-29T06:40:40.240Z,99214.81
2023-03-29T06:43:07.372Z,99203.06
2023-03-29T06:45:39.124Z,99206.91
2023-03-29T06:48:07.988Z,99203.34
2023-03-29T06:50:35.675Z,99207.16
2023-03-29T06:53:04.167Z,99197.88
2023-03-29T06:55:31.694Z,99186.94
2023-03-29T06:58:00.278Z,99190.47
2023-03-29T07:00:28.487Z,99200.13
2023-03-29T07:02:58.001Z,99207.50
2023-03-29T07:05:27.306Z,99203.44
2023-03-29T07:07:54.681Z,99200.13
2023-03-29T07:10:22.740Z,99194.09
2023-03-29T07:12:49.858Z,99191.34
2023-03-29T07:15:16.605Z,99202.63
2023-03-29T07:17:43.278Z,99200.44
2023-03-29T07:20:13.941Z,99198.56
2023-03-29T07:22:41.574Z,99191.50
2023-03-29T07:25:09.508Z,99188.34
2023-03-29T07:27:41.031Z,99177.72
2023-03-29T07:30:11.185Z,99176.63
2023-03-29T07:32:39.060Z,99174.75
2023-03-29T07:35:06.993Z,99172.03
2023-03-29T07:37:35.309Z,99177.53
2023-03-29T07:40:09.234Z,99168.78
2023-03-29T07:42:38.978Z,99150.16
2023-03-29T07:45:08.955Z,99157.56
2023-03-29T07:47:35.645Z,99162.25
2023-03-29T07:50:04.009Z,99155.06
2023-03-29T07:52:30.864Z,99154.53
2023-03-29T07:54:57.501Z,99134.81
2023-03-29T07:57:25.384Z,99136.44
2023-03-29T07:59:54.242Z,99130.16
2023-03-29T08:02:21.351Z,99133.22
2023-03-29T08:04:48.095Z,99137.03
2023-03-29T08:07:17.047Z,99134.59
2023-03-29T08:09:45.536Z,99126.69
2023-03-29T08:12:12.667Z,99123.44
2023-03-29T08:14:39.330Z,99120.19
2023-03-29T08:17:06.310Z,99116.91
2023-03-29T08:19:33.090Z,99119.94
2023-03-29T08:22:00.647Z,99116.91
2023-03-29T08:24:27.341Z,99115.03
2023-03-29T08:26:54.016Z,99114.75
2023-03-29T08:29:20.714Z,99111.47
2023-03-29T08:31:47.309Z,99114.22
2023-03-29T08:34:14.205Z,99120.88
2023-03-29T08:36:41.307Z,99110.69
2023-03-29T08:39:07.994Z,99113.66
2023-03-29T08:41:46.618Z,99104.88
2023-03-29T08:44:25.002Z,99099.94
2023-03-29T08:47:17.263Z,99101.88
2023-03-29T08:49:48.729Z,99086.75
2023-03-29T08:52:38.321Z,99103.22
2023-03-29T08:55:18.377Z,99088.13
2023-03-29T08:57:47.820Z,99078.53
2023-03-29T09:00:29.582Z,99077.47
2023-03-29T09:03:00.233Z,99079.94
2023-03-29T09:05:31.152Z,99081.31
2023-03-29T09:07:58.123Z,99080.75
2023-03-29T09:10:35.627Z,99085.13
2023-03-29T09:13:08.573Z,99073.09
2023-03-29T09:15:48.635Z,99076.38
2023-03-29T09:18:44.407Z,99075.63
2023-03-29T09:21:46.789Z,99065.47
2023-03-29T09:24:42.694Z,99059.75
2023-03-29T09:27:15.320Z,99053.16
2023-03-29T09:30:26.303Z,99058.91
2023-03-29T09:32:54.540Z,99046.31
2023-03-29T09:35:58.970Z,99046.03
2023-03-29T09:38:28.881Z,99046.59
2023-03-29T09:41:00.563Z,99038.91
2023-03-29T09:43:46.135Z,99028.22
2023-03-29T09:46:28.297Z,99026.84
2023-03-29T09:48:56.787Z,99021.63
2023-03-29T09:51:29.298Z,99020.81
2023-03-29T09:53:58.157Z,99012.88
2023-03-29T09:56:24.922Z,99004.88
2023-03-29T09:58:51.900Z,99008.47
2023-03-29T10:01:19.121Z,99009.81
2023-03-29T10:03:51.634Z,99005.19
2023-03-29T10:06:21.393Z,98998.59
2023-03-29T10:08:52.855Z,98991.72
2023-03-29T10:11:23.930Z,98988.69
2023-03-29T10:13:55.081Z,98980.72
2023-03-29T10:16:29.845Z,98974.41
2023-03-29T10:18:57.871Z,98961.22
2023-03-29T10:21:30.003Z,98957.66
2023-03-29T10:24:00.006Z,98962.84
2023-03-29T10:26:32.920Z,98963.69
2023-03-29T10:29:01.875Z,98963.41
2023-03-29T10:31:33.312Z,98965.88
2023-03-29T10:34:06.341Z,98963.13
2023-03-29T10:36:33.297Z,98962.31
2023-03-29T10:39:05.589Z,98969.72
2023-03-29T10:41:35.023Z,98963.13
2023-03-29T10:44:03.395Z,98955.16
2023-03-29T10:46:42.126Z,98957.09
2023-03-29T10:49:19.241Z,98967.50
2023-03-29T10:51:47.585Z,98959.53
2023-03-29T10:54:17.488Z,98964.19
2023-03-29T10:56:52.543Z,98959.53
2023-03-29T10:59:49.128Z,98945.22
2023-03-29T11:02:15.786Z,98948.25
2023-03-29T11:04:52.885Z,98941.63
2023-03-29T11:07:47.563Z,98935.84
2023-03-29T11:10:35.428Z,98935.56
2023-03-29T11:13:20.215Z,98931.97
2023-03-29T11:16:08.377Z,98930.91
2023-03-29T11:18:50.603Z,98922.94
2023-03-29T11:21:36.184Z,98918.84
2023-03-29T11:24:27.647Z,98909.44
2023-03-29T11:27:00.394Z,98914.13
2023-03-29T11:30:03.247Z,98912.47
2023-03-29T11:32:56.562Z,98912.47
2023-03-29T11:35:29.653Z,98901.75
2023-03-29T11:38:35.316Z,98897.91
2023-03-29T11:41:14.755Z,98882.53
2023-03-29T11:43:50.993Z,98879.75
2023-03-29T11:46:27.365Z,98891.50
2023-03-29T11:49:04.466Z,98889.00
2023-03-29T11:51:56.952Z,98882.69
2023-03-29T11:54:41.992Z,98872.53
2023-03-29T11:57:21.253Z,98867.03
2023-03-29T12:00:07.010Z,98881.31
2023-03-29T12:02:42.388Z,98869.75
2023-03-29T12:05:21.071Z,98862.09
2023-03-29T12:08:03.765Z,98856.59
2023-03-29T12:10:46.329Z,98866.22
2023-03-29T12:13:45.306Z,98858.47
2023-03-29T12:16:35.426Z,98840.09
2023-03-29T12:19:16.421Z,98826.81
2023-03-29T12:21:46.230Z,98843.56
2023-03-29T12:24:16.078Z,98841.13
2023-03-29T12:26:57.890Z,98835.09
2023-03-29T12:29:59.455Z,98833.19
2023-03-29T12:32:26.046Z,98833.75
2023-03-29T12:35:12.609Z,98834.53
2023-03-29T12:37:47.844Z,98823.22
2023-03-29T12:40:18.649Z,98808.38
2023-03-29T12:42:53.095Z,98813.59
2023-03-29T12:45:33.486Z,98813.03
2023-03-29T12:48:01.304Z,98808.56
2023-03-29T12:50:32.883Z,98806.06
2023-03-29T12:53:15.707Z,98812.13
2023-03-29T12:55:42.472Z,98800.81
2023-03-29T12:58:35.309Z,98806.56
2023-03-29T13:01:23.407Z,98799.09
2023-03-29T13:03:52.144Z,98796.09
2023-03-29T13:06:32.962Z,98817.78
2023-03-29T13:09:20.428Z,98809.84
2023-03-29T13:11:53.694Z,98803.22
2023-03-29T13:14:24.090Z,98800.16
2023-03-29T13:16:50.891Z,98786.97
2023-03-29T13:19:26.888Z,98796.78
2023-03-29T13:22:11.804Z,98790.31
2023-03-29T13:24:54.325Z,98773.69
2023-03-29T13:27:48.943Z,98778.22
2023-03-29T13:30:56.906Z,98765.31
2023-03-29T13:33:41.813Z,98762.31
2023-03-29T13:36:27.136Z,98759.56
2023-03-29T13:38:55.618Z,98761.59
2023-03-29T13:41:40.328Z,98759.88
2023-03-29T13:44:21.942Z,98748.63
2023-03-29T13:47:00.914Z,98746.22
2023-03-29T13:49:32.155Z,98746.59
2023-03-29T13:52:22.658Z,98732.22
2023-03-29T13:54:56.319Z,98723.56
2023-03-29T13:57:34.957Z,98723.31
2023-03-29T14:00:17.832Z,98722.38
2023-03-29T14:02:52.247Z,98710.78
2023-03-29T14:05:28.920Z,98715.69
2023-03-29T14:07:55.859Z,98713.84
2023-03-29T14:10:37.931Z,98709.56
2023-03-29T14:13:04.667Z,98707.41
2023-03-29T14:16:02.892Z,98703.84
2023-03-29T14:18:37.205Z,98694.00
2023-03-29T14:21:04.565Z,98698.63
2023-03-29T14:23:35.199Z,98689.53
2023-03-29T14:26:14.263Z,98677.47
2023-03-29T14:28:49.089Z,98683.06
2023-03-29T14:31:21.532Z,98678.81
2023-03-29T14:33:59.585Z,98678.25
2023-03-29T14:36:28.108Z,98673.25
2023-03-29T14:39:02.759Z,98669.94
2023-03-29T14:41:31.736Z,98676.06
2023-03-29T14:43:59.634Z,98670.31
2023-03-29T14:46:27.352Z,98670.38
2023-03-29T14:48:55.880Z,98664.94
2023-03-29T14:51:28.615Z,98676.69
2023-03-29T14:53:56.145Z,98674.47
2023-03-29T14:56:25.484Z,98666.81
2023-03-29T14:58:56.928Z,98659.63
2023-03-29T15:01:27.269Z,98655.97
2023-03-29T15:04:01.965Z,98664.22
2023-03-29T15:06:30.726Z,98665.13
2023-03-29T15:09:04.898Z,98664.50
2023-03-29T15:11:34.377Z,98670.06
2023-03-29T15:14:14.143Z,98663.84
2023-03-29T15:16:42.945Z,98655.41
2023-03-29T15:19:18.685Z,98643.72
2023-03-29T15:21:48.095Z,98634.88
2023-03-29T15:24:30.468Z,98623.56
2023-03-29T15:27:05.595Z,98619.25
2023-03-29T15:29:46.361Z,98613.44
2023-03-29T15:32:24.388Z,98629.81
2023-03-29T15:35:02.239Z,98624.44
2023-03-29T15:37:28.980Z,98627.13
2023-03-29T15:39:56.444Z,98610.63
2023-03-29T15:42:24.001Z,98623.34
2023-03-29T15:44:54.802Z,98625.41
2023-03-29T15:47:22.173Z,98606.88
2023-03-29T15:49:48.875Z,98603.91
2023-03-29T15:52:15.478Z,98601.69
2023-03-29T15:54:42.467Z,98599.22
2023-03-29T15:57:15.040Z,98594.50
2023-03-29T15:59:43.005Z,98588.91
2023-03-29T16:02:15.813Z,98585.69
2023-03-29T16:04:43.128Z,98583.09
2023-03-29T16:07:15.191Z,98582.50
2023-03-29T16:09:42.307Z,98580.25
2023-03-29T16:12:10.374Z,98581.63
2023-03-29T16:14:37.182Z,98578.72
2023-03-29T16:17:05.850Z,98585.19
2023-03-29T16:19:33.848Z,98580.25
2023-03-29T16:22:03.165Z,98570.88
2023-03-29T16:24:32.254Z,98570.31
2023-03-29T16:26:59.871Z,98563.16
2023-03-29T16:29:26.523Z,98558.47
2023-03-29T16:31:53.789Z,98552.75
2023-03-29T16:34:21.759Z,98545.84
2023-03-29T16:36:49.181Z,98550.66
2023-03-29T16:39:16.221Z,98544.34
2023-03-29T16:41:43.163Z,98540.50
2023-03-29T16:44:15.849Z,98533.19
2023-03-29T16:46:42.669Z,98545.69
2023-03-29T16:49:14.003Z,98535.84
2023-03-29T16:51:40.709Z,98532.06
2023-03-29T16:54:07.477Z,98530.19
2023-03-29T16:56:36.500Z,98532.69
2023-03-29T16:59:03.544Z,98543.22
2023-03-29T17:01:30.259Z,98526.78
2023-03-29T17:03:57.214Z,98528.72
2023-03-29T17:06:24.094Z,98527.09
2023-03-29T17:08:50.817Z,98525.22
2023-03-29T17:11:17.813Z,98517.22
2023-03-29T17:13:44.601Z,98504.28
2023-03-29T17:16:11.466Z,98498.78
2023-03-29T17:18:38.254Z,98506.78
2023-03-29T17:21:05.260Z,98500.47
2023-03-29T17:23:31.852Z,98492.31
2023-03-29T17:25:58.490Z,98498.31
2023-03-29T17:28:25.252Z,98497.72
2023-03-29T17:30:52.554Z,98491.09
2023-03-29T17:33:22.843Z,98479.59
2023-03-29T17:35:49.691Z,98482.34
2023-03-29T17:38:16.355Z,98477.94
2023-03-29T17:40:42.982Z,98472.53
2023-03-29T17:43:09.607Z,98472.00
2023-03-29T17:45:36.256Z,98467.69
2023-03-29T17:48:05.597Z,98464.66
2023-03-29T17:50:33.022Z,98473.16
2023-03-29T17:52:59.657Z,98467.16
2023-03-29T17:55:27.462Z,98474.94
2023-03-29T17:57:54.129Z,98468.34
2023-03-29T18:00:21.346Z,98451.88
2023-03-29T18:02:48.202Z,98456.81
2023-03-29T18:05:14.836Z,98468.38
2023-03-29T18:07:41.434Z,98465.13
2023-03-29T18:10:08.332Z,98458.56
2023-03-29T18:12:35.264Z,98465.41
2023-03-29T18:15:02.491Z,98473.72
2023-03-29T18:17:29.350Z,98471.25
2023-03-29T18:19:56.340Z,98460.56
2023-03-29T18:22:24.164Z,98457.59
2023-03-29T18:24:51.187Z,98454.59
2023-03-29T18:27:18.447Z,98456.03
2023-03-29T18:29:45.213Z,98458.84
2023-03-29T18:32:12.892Z,98460.47
2023-03-29T18:34:39.866Z,98458.91
2023-03-29T18:37:07.489Z,98452.28
2023-03-29T18:39:34.743Z,98453.97
2023-03-29T18:42:02.116Z,98451.25
2023-03-29T18:44:29.182Z,98447.94
2023-03-29T18:46:56.343Z,98445.28
2023-03-29T18:49:25.020Z,98440.06
2023-03-29T18:51:51.941Z,98436.78
2023-03-29T18:54:18.828Z,98427.81
2023-03-29T18:56:45.617Z,98436.03
2023-03-29T18:59:12.744Z,98435.53
2023-03-29T19:01:39.601Z,98434.91
2023-03-29T19:04:06.731Z,98427.81
2023-03-29T19:06:33.366Z,98423.72
2023-03-29T19:09:02.319Z,98419.63
2023-03-29T19:11:29.708Z,98413.63
2023-03-29T19:13:56.878Z,98421.03
2023-03-29T19:16:23.699Z,98410.09
2023-03-29T19:18:50.526Z,98407.66
2023-03-29T19:21:17.149Z,98410.41
2023-03-29T19:23:43.813Z,98407.41
2023-03-29T19:26:11.664Z,98412.09
2023-03-29T19:28:38.355Z,98405.53
2023-03-29T19:31:05.402Z,98403.91
2023-03-29T19:33:32.396Z,98399.00
2023-03-29T19:35:59.224Z,98400.13
2023-03-29T19:38:25.973Z,98403.22
2023-03-29T19:40:52.962Z,98400.72
2023-03-29T19:43:20.773Z,98404.28
2023-03-29T19:45:49.424Z,98396.56
2023-03-29T19:48:22.345Z,98400.72
2023-03-29T19:50:49.556Z,98384.00
2023-03-29T19:53:16.192Z,98379.31
2023-03-29T19:55:45.421Z,98384.28
2023-03-29T19:58:13.160Z,98381.03
2023-03-29T20:00:41.880Z,98381.03
2023-03-29T20:03:12.601Z,98391.41
2023-03-29T20:05:40.208Z,98388.13
2023-03-29T20:08:07.480Z,98389.56
2023-03-29T20:10:34.932Z,98376.09
2023-03-29T20:13:01.692Z,98377.53
2023-03-29T20:15:28.612Z,98379.44
2023-03-29T20:17:59.310Z,98378.59
2023-03-29T20:20:27.023Z,98381.13
2023-03-29T20:23:04.596Z,98381.13
2023-03-29T20:25:35.773Z,98381.41
2023-03-29T20:28:03.972Z,98384.75
2023-03-29T20:30:30.798Z,98372.66
2023-03-29T20:32:57.574Z,98365.81
2023-03-29T20:35:24.586Z,98354.56
2023-03-29T20:37:51.676Z,98355.38
2023-03-29T20:40:18.319Z,98337.88
2023-03-29T20:42:46.318Z,98346.09
2023-03-29T20:45:18.567Z,98333.75
2023-03-29T20:47:57.530Z,98326.13
2023-03-29T20:50:28.811Z,98333.75
2023-03-29T20:52:57.109Z,98333.50
2023-03-29T20:55:24.180Z,98336.75
2023-03-29T20:57:54.098Z,98320.84
2023-03-29T21:00:21.045Z,98307.97
2023-03-29T21:02:47.879Z,98308.25
2023-03-29T21:05:15.772Z,98303.59
2023-03-29T21:07:44.814Z,98312.13
2023-03-29T21:10:12.399Z,98315.69
2023-03-29T21:12:40.092Z,98316.22
2023-03-29T21:15:10.563Z,98313.75
2023-03-29T21:17:38.075Z,98307.44
2023-03-29T21:20:11.153Z,98300.91
2023-03-29T21:22:39.259Z,98304.19
2023-03-29T21:25:15.517Z,98283.63
2023-03-29T21:27:42.263Z,98296.22
2023-03-29T21:30:09.587Z,98285.25
2023-03-29T21:32:37.437Z,98289.94
2023-03-29T21:35:04.291Z,98282.25
2023-03-29T21:37:30.987Z,98293.50
2023-03-29T21:39:57.974Z,98289.13
2023-03-29T21:42:24.804Z,98283.63
2023-03-29T21:44:51.472Z,98286.06
2023-03-29T21:47:18.177Z,98282.50
2023-03-29T21:49:45.469Z,98287.19
2023-03-29T21:52:13.095Z,98280.88
2023-03-29T21:54:39.788Z,98282.81
2023-03-29T21:57:06.513Z,98288.59
2023-03-29T21:59:33.177Z,98288.06
2023-03-29T22:02:00.032Z,98283.63
2023-03-29T22:04:36.582Z,98286.38
2023-03-29T22:07:04.844Z,98278.97
2023-03-29T22:09:34.881Z,98276.50
2023-03-29T22:12:02.306Z,98273.78
2023-03-29T22:14:30.280Z,98280.06
2023-03-29T22:16:57.217Z,98260.56
2023-03-29T22:19:24.004Z,98265.00
2023-03-29T22:21:51.471Z,98264.50
2023-03-29T22:24:19.085Z,98255.16
2023-03-29T22:26:45.949Z,98262.06
2023-03-29T22:29:12.543Z,98256.25
2023-03-29T22:31:39.634Z,98253.53
2023-03-29T22:34:06.909Z,98249.16
2023-03-29T22:36:33.766Z,98251.28
2023-03-29T22:39:00.727Z,98251.34
2023-03-29T22:41:28.242Z,98244.16
2023-03-29T22:43:57.373Z,98250.78
2023-03-29T22:46:24.951Z,98244.16
2023-03-29T22:48:52.494Z,98250.78
2023-03-29T22:51:20.234Z,98250.78
2023-03-29T22:53:47.159Z,98245.59
2023-03-29T22:56:15.540Z,98246.69
2023-03-29T22:58:43.079Z,98243.94
2023-03-29T23:01:10.189Z,98240.97
2023-03-29T23:03:37.084Z,98246.97
2023-03-29T23:06:04.289Z,98243.13
2023-03-29T23:08:33.134Z,98242.31
2023-03-29T23:11:01.041Z,98249.41
2023-03-29T23:13:29.249Z,98236.59
2023-03-29T23:16:01.749Z,98238.81
2023-03-29T23:18:30.846Z,98249.78
2023-03-29T23:20:59.023Z,98234.44
2023-03-29T23:23:27.071Z,98237.69
2023-03-29T23:25:55.490Z,98230.66
2023-03-29T23:28:25.056Z,98231.78
2023-03-29T23:31:02.893Z,98224.44
2023-03-29T23:33:33.633Z,98229.72
2023-03-29T23:36:04.866Z,98225.38
2023-03-29T23:38:34.180Z,98224.91
2023-03-29T23:41:03.060Z,98216.19
2023-03-29T23:43:33.090Z,98202.53
2023-03-29T23:46:05.093Z,98217.41
2023-03-29T23:48:32.779Z,98210.88
2023-03-29T23:50:59.421Z,98204.91
2023-03-29T23:53:28.744Z,98203.28
2023-03-29T23:55:58.530Z,98208.19
2023-03-29T23:58:25.131Z,98203.75
